メインページ
METAR-TAF:

METAR-TAF

空港 :

ジッダ, サウジアラビア

キング・アブドゥルアズィーズ国際空港

緯度: 21-42N, 経度: 039-11E, 海抜: 15m

現時点の気象観測

当レポートは54分前の05:00(UTC)に作成
北/北西の風 6kt
気温 34°C
湿度 60%
気圧 1001 hPa
視程10km以上
高度4000ftの雲はほとんどない

METAR: OEJN 200500Z 33006KT 9999 FEW040 34/25 Q1001 NOSIG

時間: 08:54 (05:54 UTC)

予報

当レポートは1時間54分前の04:00(UTC)に作成
予報は20日の 06時(UTC)から 21日の 12時(UTC)まで有効
西/南西の風 12kt
視程: 7000m
高度4000ftの雲は散在している
20日の 12時(UTC)から 20日の 14時(UTC)まで徐々に
西の風 12kt

TAF: OEJN 200400Z 2006/2112 24012KT 7000 SCT040 BECMG 2012/2014 28012KT

4,000以上の空港の気象観測と天気予報(METAR報とTAF報)

利用可能な観測所は地図上に黄色い丸と赤い丸で示す。

丸の上にカーソルを重ねると観測所名を参照できる。

次にクリックすると気象観測と天気予報を参照できる。

マップの切り替え:黒色「×」印の緑ボタンをクリックして拡大、「-」印の緑ボタンをクリックして縮小、緑色の三角印をクリックして隣りの地図に切り替え


METAR-TAF: